createdAt,value
2018-07-12T04:50:47.317Z,7.40
2018-07-12T04:51:54.179Z,8.13
2018-07-12T04:52:58.357Z,8.33
2018-07-12T04:54:02.562Z,7.00
2018-07-12T04:55:07.725Z,7.67
2018-07-12T04:56:12.944Z,7.43
2018-07-12T04:57:17.163Z,7.50
2018-07-12T04:58:21.517Z,7.37
2018-07-12T04:59:26.584Z,6.87
2018-07-12T05:00:31.381Z,5.97
2018-07-12T05:01:37.658Z,7.30
2018-07-12T05:02:42.508Z,7.47
2018-07-12T05:03:47.509Z,7.73
2018-07-12T05:04:51.836Z,7.13
2018-07-12T05:05:56.046Z,6.90
2018-07-12T05:07:00.192Z,7.03
2018-07-12T05:08:05.404Z,8.10
2018-07-12T05:09:11.425Z,7.43
2018-07-12T05:10:15.559Z,8.60
2018-07-12T05:11:20.010Z,8.40
2018-07-12T05:12:24.183Z,9.30
2018-07-12T05:13:28.379Z,9.90
2018-07-12T05:14:32.634Z,9.30
2018-07-12T05:15:37.035Z,9.07
2018-07-12T05:16:41.223Z,6.87
2018-07-12T05:17:45.864Z,6.50
2018-07-12T05:18:50.244Z,7.30
2018-07-12T05:19:54.562Z,8.53
2018-07-12T05:20:59.064Z,6.90
2018-07-12T05:22:03.556Z,6.60
2018-07-12T05:23:07.830Z,6.30
2018-07-12T05:24:12.087Z,6.27
2018-07-12T05:25:16.433Z,7.10
2018-07-12T05:26:21.035Z,8.97
2018-07-12T05:27:25.307Z,7.80
2018-07-12T05:28:29.946Z,8.73
2018-07-12T05:29:38.288Z,7.13
2018-07-12T05:30:42.627Z,7.37
2018-07-12T05:31:49.045Z,7.97
2018-07-12T05:32:53.524Z,8.70
2018-07-12T05:33:58.889Z,7.60
2018-07-12T05:35:04.817Z,8.40
2018-07-12T05:36:20.660Z,7.73
2018-07-12T05:37:27.020Z,8.20
2018-07-12T05:38:33.754Z,6.83
2018-07-12T05:39:39.877Z,8.23
2018-07-12T05:40:47.898Z,7.70
2018-07-12T05:41:54.736Z,8.87
2018-07-12T05:43:02.039Z,10.17
2018-07-12T05:44:08.358Z,7.33
2018-07-12T05:45:14.554Z,8.90
2018-07-12T05:46:22.445Z,8.10
2018-07-12T05:47:31.495Z,7.83
2018-07-12T05:48:37.867Z,6.23
2018-07-12T05:49:44.188Z,7.77
2018-07-12T05:50:51.277Z,6.90
2018-07-12T05:51:58.527Z,7.30
2018-07-12T05:53:04.895Z,6.40
2018-07-12T05:54:11.971Z,6.63
2018-07-12T05:55:18.967Z,6.70
2018-07-12T05:56:26.444Z,7.67
2018-07-12T05:57:32.847Z,6.90
2018-07-12T05:58:39.212Z,7.60
2018-07-12T05:59:45.473Z,6.20
2018-07-12T06:00:52.368Z,6.80
2018-07-12T06:02:10.545Z,6.97
2018-07-12T06:03:16.769Z,6.90
2018-07-12T06:04:23.663Z,6.03
2018-07-12T06:05:30.429Z,6.40
2018-07-12T06:06:40.186Z,6.40
2018-07-12T06:07:46.477Z,6.27
2018-07-12T06:08:52.666Z,5.90
2018-07-12T06:10:00.709Z,6.40
2018-07-12T06:11:09.020Z,6.93
2018-07-12T06:12:15.120Z,6.83
2018-07-12T06:13:22.222Z,6.40
2018-07-12T06:14:29.325Z,5.93
2018-07-12T06:15:36.802Z,5.90
2018-07-12T06:16:44.269Z,6.00
2018-07-12T06:17:50.374Z,6.20
2018-07-12T06:18:58.304Z,6.50
2018-07-12T06:20:11.059Z,5.20
2018-07-12T06:21:18.956Z,5.53
2018-07-12T06:22:26.828Z,6.47
2018-07-12T06:23:34.696Z,6.53
2018-07-12T06:24:41.989Z,5.60
2018-07-12T06:25:48.933Z,6.67
2018-07-12T06:26:55.263Z,6.57
2018-07-12T06:28:03.284Z,7.13
2018-07-12T06:29:09.553Z,7.30
2018-07-12T06:30:16.961Z,6.73
2018-07-12T06:31:23.652Z,6.17
2018-07-12T06:32:29.989Z,7.00
2018-07-12T06:33:37.854Z,6.40
2018-07-12T06:34:46.753Z,6.80
2018-07-12T06:35:54.446Z,6.30
2018-07-12T06:37:01.965Z,6.73
2018-07-12T06:38:09.795Z,6.00
2018-07-12T06:39:17.175Z,5.87
2018-07-12T06:40:24.805Z,5.50
2018-07-12T06:41:30.991Z,6.67
2018-07-12T06:42:42.909Z,7.23
2018-07-12T07:20:37.122Z,8.27
2018-07-12T07:21:48.480Z,8.80
2018-07-12T07:22:59.701Z,8.27
2018-07-12T07:24:11.326Z,6.80
2018-07-12T07:25:22.542Z,7.70
2018-07-12T07:26:33.928Z,7.97
2018-07-12T07:27:46.234Z,7.50
2018-07-12T07:28:57.880Z,7.00
2018-07-12T07:30:09.345Z,7.20
2018-07-12T07:31:20.466Z,6.80
2018-07-12T07:32:34.956Z,7.50
2018-07-12T07:33:46.578Z,8.70
2018-07-12T07:34:59.500Z,8.00
2018-07-12T07:36:10.576Z,7.37
2018-07-12T07:37:22.666Z,7.20
2018-07-12T07:38:34.271Z,6.73
2018-07-12T07:39:46.066Z,7.23
2018-07-12T07:40:58.144Z,5.97
2018-07-12T07:42:10.298Z,7.80
2018-07-12T07:43:21.831Z,7.67
2018-07-12T07:44:33.140Z,6.03
2018-07-12T07:45:46.364Z,6.40
2018-07-12T07:46:58.558Z,5.83
2018-07-12T07:48:09.705Z,6.13
2018-07-12T07:49:21.142Z,6.23
2018-07-12T07:50:36.396Z,5.80
2018-07-12T07:51:47.698Z,5.87
2018-07-12T07:52:59.222Z,5.87
2018-07-12T07:54:11.638Z,5.40
2018-07-12T07:55:23.022Z,5.87
2018-07-12T07:56:37.495Z,5.47
2018-07-12T07:57:48.940Z,5.77
2018-07-12T07:59:00.200Z,5.53
2018-07-12T08:00:11.464Z,4.93
2018-07-12T08:01:24.303Z,5.47
2018-07-12T08:02:35.722Z,5.63
2018-07-12T08:03:47.409Z,5.27
2018-07-12T08:04:58.818Z,5.33
2018-07-12T08:06:11.226Z,5.40
2018-07-12T08:07:22.528Z,5.00
2018-07-12T08:08:34.458Z,4.57
2018-07-12T08:09:45.699Z,5.80
2018-07-12T08:10:57.926Z,5.47
2018-07-12T08:12:10.608Z,5.03
2018-07-12T08:13:23.495Z,6.03
2018-07-12T08:14:29.490Z,4.40
2018-07-12T08:15:35.558Z,5.10
2018-07-12T08:16:42.568Z,5.30
2018-07-12T08:17:48.740Z,5.43
2018-07-12T08:18:54.882Z,5.10
2018-07-12T08:20:00.898Z,5.50
2018-07-12T08:21:12.395Z,5.00
2018-07-12T08:22:18.654Z,5.17
2018-07-12T08:23:24.935Z,4.47
2018-07-12T08:24:31.092Z,5.07
2018-07-12T08:25:37.404Z,4.67
2018-07-12T08:26:43.670Z,4.83
2018-07-12T08:28:01.176Z,4.30
2018-07-12T08:29:07.495Z,5.53
2018-07-12T08:30:13.734Z,4.80
2018-07-12T08:31:19.944Z,4.60
2018-07-12T08:32:26.259Z,4.97
2018-07-12T08:33:32.432Z,5.00
2018-07-12T08:34:38.600Z,3.80
2018-07-12T08:35:44.759Z,3.90
2018-07-12T08:36:50.872Z,4.50
2018-07-12T08:37:57.903Z,4.97
2018-07-12T08:39:05.830Z,4.10
2018-07-12T08:40:14.869Z,4.63
2018-07-12T08:41:20.957Z,4.60
2018-07-12T08:42:29.030Z,4.50
2018-07-12T08:43:36.203Z,4.03
2018-07-12T08:44:42.199Z,4.00
2018-07-12T08:45:48.369Z,4.27
2018-07-12T08:46:54.541Z,4.10
2018-07-12T08:48:00.689Z,3.83
2018-07-12T08:49:07.580Z,3.73
2018-07-12T08:50:13.839Z,4.20
2018-07-12T08:51:20.917Z,4.10
2018-07-12T08:52:27.837Z,4.60
2018-07-12T08:53:37.435Z,4.60
2018-07-12T08:54:43.720Z,4.10
2018-07-12T08:55:49.977Z,4.10
2018-07-12T08:56:56.107Z,4.53
2018-07-12T08:58:03.009Z,4.10
2018-07-12T08:59:09.225Z,4.17
2018-07-12T09:00:16.391Z,4.27
2018-07-12T09:01:23.387Z,4.30
2018-07-12T09:02:29.781Z,4.77
2018-07-12T09:03:36.135Z,4.43
2018-07-12T09:04:42.201Z,3.90
2018-07-12T09:05:49.697Z,4.77
2018-07-12T09:06:55.772Z,4.03
2018-07-12T09:08:01.902Z,3.83
2018-07-12T09:09:09.633Z,4.47
2018-07-12T09:10:16.380Z,3.77
2018-07-12T09:11:22.621Z,4.43
2018-07-12T09:12:28.755Z,4.50
2018-07-12T09:13:34.797Z,4.60
2018-07-12T09:14:41.085Z,4.33
2018-07-12T09:15:47.742Z,4.53
2018-07-12T09:16:54.019Z,5.57
2018-07-12T09:18:02.152Z,5.07
2018-07-12T09:19:08.415Z,4.90
2018-07-12T09:20:15.602Z,5.80
2018-07-12T09:21:23.492Z,6.10
2018-07-12T09:22:30.772Z,5.30
2018-07-12T09:23:37.881Z,5.00
2018-07-12T09:24:44.034Z,4.70
2018-07-12T09:25:50.140Z,5.90
2018-07-12T09:26:58.311Z,5.50
2018-07-12T09:28:05.529Z,5.80
2018-07-12T09:29:13.501Z,4.90
2018-07-12T09:30:19.957Z,5.50
2018-07-12T09:31:26.339Z,5.00
2018-07-12T09:32:32.607Z,5.60
2018-07-12T09:33:39.021Z,5.47
2018-07-12T09:34:45.075Z,5.13
2018-07-12T09:35:52.418Z,5.30
2018-07-12T09:36:58.595Z,5.60
2018-07-12T09:38:13.923Z,4.97
2018-07-12T09:39:20.159Z,5.30
2018-07-12T09:40:26.642Z,4.93
2018-07-12T09:41:32.844Z,5.13
2018-07-12T09:42:38.988Z,4.77
2018-07-12T09:43:46.502Z,4.77
2018-07-12T09:44:52.626Z,5.47
2018-07-12T09:46:01.334Z,4.80
2018-07-12T09:47:07.652Z,6.03
2018-07-12T09:48:13.878Z,5.30
2018-07-12T09:49:21.115Z,4.30
2018-07-12T09:50:27.717Z,5.40
2018-07-12T09:51:34.680Z,4.30
2018-07-12T09:52:41.707Z,4.90
2018-07-12T09:53:48.808Z,4.50
2018-07-12T09:54:55.961Z,4.40
2018-07-12T09:56:02.319Z,4.70
2018-07-12T09:57:19.438Z,5.70
2018-07-12T09:58:30.242Z,5.77
2018-07-12T09:59:38.476Z,4.77
2018-07-12T10:00:55.568Z,4.90
2018-07-12T10:02:09.256Z,4.43
2018-07-12T10:03:21.666Z,4.07
2018-07-12T10:04:28.574Z,4.50
2018-07-12T10:06:38.160Z,4.30
2018-07-12T10:07:50.733Z,4.83
2018-07-12T10:09:02.311Z,4.40
2018-07-12T10:10:09.702Z,4.67
2018-07-12T10:11:22.885Z,4.50
2018-07-12T10:12:34.272Z,4.40
2018-07-12T10:13:47.093Z,4.57
2018-07-12T10:14:59.406Z,4.37
2018-07-12T10:16:13.448Z,4.27
2018-07-12T10:17:25.238Z,3.80
2018-07-12T10:18:33.101Z,4.53
2018-07-12T10:19:39.278Z,4.67
2018-07-12T10:20:48.619Z,3.97
2018-07-12T10:21:57.414Z,4.90
2018-07-12T10:23:03.620Z,4.63
2018-07-12T10:24:11.482Z,4.20
2018-07-12T10:25:17.717Z,4.70
2018-07-12T10:26:25.580Z,4.90
2018-07-12T10:27:32.410Z,4.77
2018-07-12T10:28:39.258Z,4.10
2018-07-12T10:29:46.668Z,4.20
2018-07-12T10:30:54.099Z,4.13
2018-07-12T10:32:00.317Z,4.43
2018-07-12T10:33:06.877Z,4.30
2018-07-12T10:34:13.902Z,3.87
2018-07-12T10:35:20.998Z,4.23
2018-07-12T10:36:27.228Z,4.17
2018-07-12T10:37:33.937Z,4.27
2018-07-12T10:38:42.037Z,3.67
2018-07-12T10:39:49.967Z,4.50
2018-07-12T10:40:56.916Z,3.63
2018-07-12T10:42:03.234Z,4.23
2018-07-12T10:43:10.433Z,4.30
2018-07-12T10:44:16.697Z,4.50
2018-07-12T10:45:24.420Z,4.37
2018-07-12T10:46:30.554Z,4.30
2018-07-12T10:47:37.545Z,4.20
2018-07-12T10:48:43.691Z,4.93
2018-07-12T10:49:52.503Z,4.03
2018-07-12T10:51:00.213Z,4.30
2018-07-12T10:52:07.507Z,4.30
2018-07-12T10:53:13.509Z,3.80
2018-07-12T10:54:20.169Z,4.07
2018-07-12T10:55:26.523Z,4.57
2018-07-12T10:56:33.665Z,4.50
2018-07-12T10:57:40.483Z,4.50
2018-07-12T10:58:48.627Z,4.40
2018-07-12T10:59:54.771Z,4.70
2018-07-12T11:01:00.933Z,4.80
2018-07-12T11:02:07.070Z,3.80
2018-07-12T11:03:14.179Z,4.07
2018-07-12T11:04:21.213Z,3.07
2018-07-12T11:05:28.287Z,3.90
2018-07-12T11:06:34.523Z,4.60
2018-07-12T11:07:40.799Z,4.10
2018-07-12T11:08:47.619Z,4.13
2018-07-12T11:09:54.629Z,3.83
2018-07-12T11:11:00.825Z,4.90
2018-07-12T11:12:07.039Z,4.23
2018-07-12T11:13:19.356Z,4.37
2018-07-12T11:14:27.922Z,4.20
2018-07-12T11:15:34.821Z,4.20
2018-07-12T11:16:41.050Z,3.80
2018-07-12T11:17:48.030Z,4.10
2018-07-12T11:18:54.345Z,4.37
2018-07-12T11:20:01.680Z,3.97
2018-07-12T11:21:07.844Z,3.90
2018-07-12T11:22:14.783Z,4.30
2018-07-12T11:23:21.790Z,3.43
2018-07-12T11:24:30.599Z,3.93
2018-07-12T11:25:37.769Z,4.77
2018-07-12T11:26:44.937Z,4.03
2018-07-12T11:27:52.485Z,4.13
2018-07-12T11:28:58.769Z,4.57
2018-07-12T11:30:04.855Z,4.00
2018-07-12T11:31:11.092Z,4.00
2018-07-12T11:32:20.811Z,5.17
2018-07-12T11:33:38.788Z,4.20
2018-07-12T11:34:47.145Z,5.00
2018-07-12T11:35:54.179Z,4.30
2018-07-12T11:37:00.500Z,4.17
2018-07-12T11:38:06.785Z,3.87
2018-07-12T11:39:13.797Z,4.67
2018-07-12T11:40:20.827Z,4.13
2018-07-12T11:41:27.025Z,4.20
2018-07-12T11:42:34.117Z,4.90
2018-07-12T11:43:40.335Z,4.87
2018-07-12T11:44:46.757Z,4.23
2018-07-12T11:45:54.888Z,4.50
2018-07-12T11:47:01.978Z,4.43
2018-07-12T11:48:09.623Z,4.70
2018-07-12T11:49:15.869Z,4.13
2018-07-12T11:50:22.344Z,4.57
2018-07-12T11:51:28.657Z,4.70
2018-07-12T11:52:34.982Z,4.23
2018-07-12T11:53:41.589Z,4.17
2018-07-12T11:54:48.281Z,4.73
2018-07-12T11:55:54.647Z,4.73
2018-07-12T11:57:00.933Z,4.40
2018-07-12T11:58:07.354Z,3.83
2018-07-12T11:59:13.603Z,4.13
2018-07-12T12:00:20.660Z,4.37
2018-07-12T12:01:27.628Z,4.53
2018-07-12T12:02:33.722Z,4.03
2018-07-12T12:03:39.821Z,4.00
2018-07-12T12:04:47.502Z,4.50
2018-07-12T12:05:54.301Z,4.23
2018-07-12T12:07:00.932Z,3.93
2018-07-12T12:08:08.118Z,4.80
2018-07-12T12:09:14.437Z,4.17
2018-07-12T12:10:20.545Z,4.47
2018-07-12T12:11:26.666Z,4.67
2018-07-12T12:12:33.704Z,4.53
2018-07-12T12:13:40.728Z,4.00
2018-07-12T12:14:48.791Z,4.23
2018-07-12T12:15:55.667Z,5.03
2018-07-12T12:17:01.824Z,4.90
2018-07-12T12:18:10.108Z,5.53
2018-07-12T12:19:17.078Z,4.70
2018-07-12T12:20:24.054Z,4.30
2018-07-12T12:21:30.346Z,4.10
2018-07-12T12:22:37.982Z,5.00
2018-07-12T12:23:44.100Z,4.40
2018-07-12T12:24:51.799Z,4.33
2018-07-12T12:25:58.881Z,4.37
2018-07-12T12:27:09.003Z,4.57
2018-07-12T12:28:17.591Z,4.60
2018-07-12T12:29:24.610Z,4.50
2018-07-12T12:30:31.507Z,4.73
2018-07-12T12:31:37.924Z,5.00
2018-07-12T12:32:43.890Z,4.73
2018-07-12T12:33:52.073Z,4.50
2018-07-12T12:34:59.121Z,4.43
2018-07-12T12:36:08.520Z,4.30
2018-07-12T12:37:14.911Z,4.70
2018-07-12T12:38:21.142Z,4.50
2018-07-12T12:39:29.051Z,4.20
2018-07-12T12:40:36.675Z,4.20
2018-07-12T12:41:43.079Z,4.27
2018-07-12T12:42:50.887Z,4.80
2018-07-12T12:43:58.656Z,4.20
2018-07-12T12:45:04.940Z,4.40
2018-07-12T12:46:12.524Z,4.07
2018-07-12T12:47:21.301Z,4.40
2018-07-12T12:48:27.550Z,4.20
2018-07-12T12:49:33.770Z,4.27
2018-07-12T12:50:39.896Z,4.70
2018-07-12T12:51:47.643Z,5.00
2018-07-12T12:52:55.194Z,4.40
2018-07-12T12:54:01.422Z,4.80
2018-07-12T12:55:08.508Z,4.30
2018-07-12T12:56:14.970Z,4.20
2018-07-12T12:57:23.580Z,4.60
2018-07-12T12:58:31.338Z,4.63
2018-07-12T12:59:38.589Z,4.53
2018-07-12T13:00:44.769Z,4.60
2018-07-12T13:01:51.452Z,5.03
2018-07-12T13:02:58.459Z,3.30
2018-07-12T13:04:05.454Z,4.20
2018-07-12T13:05:11.581Z,4.23
2018-07-12T13:06:19.864Z,4.07
2018-07-12T13:07:26.072Z,5.20
2018-07-12T13:08:34.826Z,4.57
2018-07-12T13:09:41.109Z,4.50
2018-07-12T13:10:48.805Z,4.60
2018-07-12T13:11:55.871Z,4.40
2018-07-12T13:13:02.635Z,4.30
2018-07-12T13:14:08.865Z,4.03
2018-07-12T13:15:16.793Z,3.80
2018-07-12T13:16:23.618Z,4.53
2018-07-12T13:17:29.906Z,4.50
2018-07-12T13:18:36.138Z,4.90
2018-07-12T13:19:46.567Z,4.60
2018-07-12T13:20:52.827Z,4.17
2018-07-12T13:21:58.913Z,4.40
2018-07-12T13:23:05.323Z,5.00
2018-07-12T13:24:11.617Z,4.50
2018-07-12T13:25:17.956Z,4.43
2018-07-12T13:26:24.286Z,4.97
2018-07-12T13:27:30.623Z,4.40
2018-07-12T13:28:36.881Z,4.70
2018-07-12T13:29:44.716Z,4.60
2018-07-12T13:30:51.272Z,5.33
2018-07-12T13:31:58.189Z,5.50
2018-07-12T13:33:04.590Z,4.40
2018-07-12T13:34:11.762Z,4.20
2018-07-12T13:35:21.733Z,4.53
2018-07-12T13:36:30.891Z,5.07
2018-07-12T13:37:37.185Z,4.63
2018-07-12T13:38:43.547Z,4.80
2018-07-12T13:39:51.768Z,4.10
2018-07-12T13:40:58.134Z,5.03
2018-07-12T13:42:04.434Z,4.73
2018-07-12T13:43:10.740Z,4.40
2018-07-12T13:44:26.884Z,4.30
2018-07-12T13:45:33.161Z,4.47
2018-07-12T13:46:41.126Z,4.53
2018-07-12T13:47:48.142Z,4.20
2018-07-12T13:48:55.065Z,4.90
2018-07-12T13:50:01.865Z,4.83
2018-07-12T13:51:10.876Z,4.30
2018-07-12T13:52:18.238Z,4.57
2018-07-12T13:53:25.897Z,4.13
2018-07-12T13:54:33.294Z,4.83
2018-07-12T13:55:39.601Z,4.30
2018-07-12T13:56:47.724Z,5.07
2018-07-12T13:57:54.041Z,4.60
2018-07-12T13:59:01.162Z,4.67
2018-07-12T14:00:08.380Z,4.20
2018-07-12T14:01:14.564Z,4.60
2018-07-12T14:02:20.762Z,4.80
2018-07-12T14:03:26.992Z,4.43
2018-07-12T14:04:33.416Z,4.50
2018-07-12T14:05:41.392Z,3.90
2018-07-12T14:06:48.432Z,5.03
2018-07-12T14:07:54.590Z,5.03
2018-07-12T14:09:02.313Z,4.67
2018-07-12T14:10:08.575Z,4.77
2018-07-12T14:11:15.482Z,4.90
2018-07-12T14:12:22.444Z,4.80
2018-07-12T14:13:29.933Z,4.83
2018-07-12T14:14:37.079Z,4.87
2018-07-12T14:15:44.153Z,4.40
2018-07-12T14:16:50.428Z,5.17
2018-07-12T14:17:58.788Z,5.10
2018-07-12T14:19:06.688Z,4.83
2018-07-12T14:20:13.278Z,5.30
2018-07-12T14:21:19.476Z,4.57
2018-07-12T14:22:26.139Z,4.60
2018-07-12T14:23:34.573Z,4.67
2018-07-12T14:24:41.475Z,4.77
2018-07-12T14:25:47.609Z,4.37
2018-07-12T14:26:53.693Z,4.27
2018-07-12T14:28:01.911Z,4.67
2018-07-12T14:29:08.245Z,5.40
2018-07-12T14:30:14.524Z,5.23
2018-07-12T14:31:20.808Z,5.20
2018-07-12T14:32:27.053Z,4.40
2018-07-12T14:33:33.242Z,4.33
2018-07-12T14:34:39.540Z,4.60
2018-07-12T14:35:46.490Z,4.83
2018-07-12T14:36:52.678Z,4.43
2018-07-12T14:37:59.686Z,4.80
2018-07-12T14:39:07.496Z,4.60
2018-07-12T14:40:13.932Z,5.47
2018-07-12T14:41:21.768Z,4.37
2018-07-12T14:42:29.208Z,4.87
2018-07-12T14:43:36.410Z,5.27
2018-07-12T14:44:42.736Z,4.27
2018-07-12T14:45:48.988Z,4.60
2018-07-12T14:46:57.689Z,4.80
2018-07-12T14:48:06.066Z,5.03
2018-07-12T14:49:14.760Z,5.30
2018-07-12T14:50:20.932Z,4.60
2018-07-12T14:51:27.324Z,4.90
2018-07-12T14:52:34.366Z,5.27
2018-07-12T14:53:41.275Z,4.77
2018-07-12T14:54:48.518Z,5.00
2018-07-12T14:55:54.795Z,4.67
2018-07-12T14:57:02.307Z,4.73
2018-07-12T14:58:09.879Z,4.30
2018-07-12T14:59:17.440Z,4.97
2018-07-12T15:00:24.047Z,5.17
2018-07-12T15:01:30.274Z,5.20
2018-07-12T15:02:36.569Z,5.10
2018-07-12T15:03:42.757Z,5.10
2018-07-12T15:04:48.966Z,4.60
2018-07-12T15:05:55.872Z,4.80
2018-07-12T15:07:03.797Z,5.17
2018-07-12T15:08:10.166Z,5.33
2018-07-12T15:09:16.487Z,4.93
2018-07-12T15:10:22.643Z,4.70
2018-07-12T15:11:29.418Z,4.50
2018-07-12T15:12:36.031Z,4.83
2018-07-12T15:13:42.346Z,4.93
2018-07-12T15:14:50.579Z,5.00
2018-07-12T15:15:56.791Z,4.93
2018-07-12T15:17:03.380Z,5.50
2018-07-12T15:18:10.626Z,4.93
2018-07-12T15:19:16.818Z,4.83
2018-07-12T15:20:23.820Z,4.80
2018-07-12T15:21:30.033Z,5.20
2018-07-12T15:22:37.345Z,4.73
2018-07-12T15:23:43.350Z,5.47
2018-07-12T15:24:49.553Z,4.53
2018-07-12T15:25:56.900Z,5.30
2018-07-12T15:27:03.391Z,5.20
2018-07-12T15:28:10.891Z,4.97
2018-07-12T15:29:17.080Z,5.40
2018-07-12T15:30:29.821Z,5.67
2018-07-12T15:31:36.123Z,5.20
2018-07-12T15:32:42.322Z,5.00
2018-07-12T15:33:48.540Z,5.37
2018-07-12T15:34:56.918Z,5.30
2018-07-12T15:36:04.608Z,5.37
2018-07-12T15:37:12.248Z,4.93
2018-07-12T15:38:18.556Z,5.20
2018-07-12T15:39:24.790Z,5.00
2018-07-12T15:40:30.962Z,4.70
2018-07-12T15:41:38.542Z,5.37
2018-07-12T15:42:46.787Z,4.87
2018-07-12T15:43:53.276Z,4.80
2018-07-12T15:44:59.346Z,5.00
2018-07-12T15:46:06.914Z,5.10
2018-07-12T15:47:13.097Z,5.13
2018-07-12T15:48:20.501Z,5.20
2018-07-12T15:49:28.540Z,4.83
2018-07-12T15:50:34.681Z,4.60
2018-07-12T15:51:40.952Z,5.10
2018-07-12T15:52:47.065Z,4.60
2018-07-12T15:53:53.583Z,5.00
2018-07-12T15:54:59.852Z,5.10
2018-07-12T15:56:06.200Z,4.90
2018-07-12T15:57:12.318Z,5.67
2018-07-12T15:58:18.590Z,4.57
2018-07-12T15:59:26.254Z,5.60
2018-07-12T16:00:34.694Z,5.17
2018-07-12T16:01:41.490Z,5.80
2018-07-12T16:02:48.525Z,6.00
2018-07-12T16:03:54.839Z,5.77
2018-07-12T16:05:03.838Z,5.27
2018-07-12T16:06:09.940Z,5.83
2018-07-12T16:07:16.298Z,4.83
2018-07-12T16:08:22.346Z,4.90
2018-07-12T16:09:29.273Z,5.43
2018-07-12T16:10:35.448Z,5.30
2018-07-12T16:11:43.617Z,5.07
2018-07-12T16:12:49.926Z,5.20
2018-07-12T16:13:56.879Z,4.97
2018-07-12T16:15:03.045Z,5.30
2018-07-12T16:16:09.070Z,5.10
2018-07-12T16:17:15.212Z,4.97
2018-07-12T16:18:21.380Z,6.07
2018-07-12T16:19:27.630Z,5.50
2018-07-12T16:20:36.351Z,5.93
2018-07-12T16:21:42.832Z,4.87
2018-07-12T16:22:49.251Z,4.93
2018-07-12T16:23:55.510Z,5.80
2018-07-12T16:25:01.951Z,5.07
2018-07-12T16:26:08.482Z,5.23
2018-07-12T16:27:15.596Z,6.10
2018-07-12T16:28:22.406Z,6.30
2018-07-12T16:29:28.905Z,5.10
2018-07-12T16:30:36.760Z,5.83
2018-07-12T16:31:43.795Z,5.50
2018-07-12T16:32:49.938Z,5.60
2018-07-12T16:33:57.092Z,5.60
2018-07-12T16:35:04.112Z,5.20
2018-07-12T16:36:10.954Z,6.20
2018-07-12T16:37:17.730Z,5.50
2018-07-12T16:38:26.018Z,6.07
2018-07-12T16:39:33.198Z,5.70
2018-07-12T16:40:39.732Z,6.10
2018-07-12T16:41:49.940Z,5.83
2018-07-12T16:42:57.899Z,5.50
2018-07-12T16:44:05.607Z,6.10
2018-07-12T16:45:14.439Z,5.07
2018-07-12T16:46:21.478Z,5.40
2018-07-12T16:47:30.418Z,5.97
2018-07-12T16:48:38.273Z,5.53
2018-07-12T16:49:45.021Z,6.33
2018-07-12T16:50:51.633Z,5.67
2018-07-12T16:51:58.066Z,5.13
2018-07-12T16:53:04.426Z,5.63
2018-07-12T16:54:13.078Z,6.00
2018-07-12T16:55:22.204Z,5.67
2018-07-12T16:56:30.000Z,5.80
2018-07-12T16:57:37.536Z,6.10
2018-07-12T16:58:43.751Z,5.17
2018-07-12T16:59:51.296Z,5.70
2018-07-12T17:00:57.865Z,5.63
2018-07-12T17:02:04.420Z,6.00
2018-07-12T17:03:10.870Z,5.60
2018-07-12T17:04:17.342Z,5.50
2018-07-12T17:05:25.291Z,5.60
2018-07-12T17:06:32.945Z,5.50
2018-07-12T17:07:39.449Z,5.30
2018-07-12T17:08:47.676Z,6.23
2018-07-12T17:09:56.240Z,5.23
2018-07-12T17:11:05.145Z,5.70
2018-07-12T17:12:11.653Z,5.90
2018-07-12T17:13:22.269Z,6.10
2018-07-12T17:14:29.954Z,5.30
2018-07-12T17:15:36.269Z,5.83
2018-07-12T17:16:42.891Z,5.53
2018-07-12T17:17:51.109Z,5.93
2018-07-12T17:18:59.206Z,5.87
2018-07-12T17:20:05.491Z,5.97
2018-07-12T17:21:11.729Z,5.27
2018-07-12T17:22:18.029Z,5.70
2018-07-12T17:23:24.087Z,5.60
2018-07-12T17:24:30.307Z,5.33
2018-07-12T17:25:36.492Z,6.20
2018-07-12T17:26:44.270Z,5.80
2018-07-12T17:27:58.928Z,5.90
2018-07-12T17:29:05.472Z,5.27
2018-07-12T17:30:12.211Z,6.20
2018-07-12T17:31:18.363Z,5.30
2018-07-12T17:32:24.638Z,5.20
2018-07-12T17:33:30.703Z,5.23
2018-07-12T17:34:37.181Z,5.50
2018-07-12T17:35:43.912Z,6.10
2018-07-12T17:36:50.302Z,6.10
2018-07-12T17:37:56.972Z,5.67
2018-07-12T17:39:03.404Z,5.47
2018-07-12T17:40:09.760Z,5.40
2018-07-12T17:41:16.194Z,6.30
2018-07-12T17:42:22.564Z,6.10
2018-07-12T17:43:31.102Z,5.13
2018-07-12T17:44:37.796Z,5.60
2018-07-12T17:45:44.254Z,6.17
2018-07-12T17:46:51.042Z,5.00
2018-07-12T17:47:58.938Z,5.63
2018-07-12T17:49:05.082Z,6.20
2018-07-12T17:50:11.671Z,5.53
2018-07-12T17:51:28.008Z,6.50
2018-07-12T17:52:34.998Z,6.10
2018-07-12T17:53:42.192Z,6.03
2018-07-12T17:54:55.396Z,6.10
2018-07-12T17:56:02.452Z,6.27
2018-07-12T17:57:12.089Z,6.10
2018-07-12T17:58:18.397Z,6.50
2018-07-12T17:59:28.236Z,6.23
2018-07-12T18:00:35.773Z,5.67
2018-07-12T18:01:45.316Z,6.10
2018-07-12T18:02:53.590Z,6.43
2018-07-12T18:04:00.274Z,6.40
2018-07-12T18:05:08.078Z,6.23
2018-07-12T18:06:16.563Z,5.87
2018-07-12T18:07:23.876Z,6.50
2018-07-12T18:08:30.275Z,6.43
2018-07-12T18:09:36.663Z,5.67
2018-07-12T18:10:43.222Z,6.00
2018-07-12T18:11:50.563Z,6.27
2018-07-12T18:12:56.917Z,6.20
2018-07-12T18:14:03.083Z,5.67
2018-07-12T18:15:09.292Z,6.97
2018-07-12T18:16:17.977Z,7.10
2018-07-12T18:17:25.143Z,6.40
2018-07-12T18:18:33.097Z,5.93
2018-07-12T18:19:39.368Z,6.77
2018-07-12T18:20:46.181Z,6.53
2018-07-12T18:21:52.524Z,6.33
2018-07-12T18:22:58.740Z,5.90
2018-07-12T18:24:04.943Z,6.10
2018-07-12T18:25:10.969Z,5.97
2018-07-12T18:26:17.048Z,5.70
2018-07-12T18:27:23.393Z,5.80
2018-07-12T18:28:29.873Z,6.43
2018-07-12T18:29:38.017Z,5.83
2018-07-12T18:30:44.436Z,5.30
2018-07-12T18:31:51.576Z,5.93
2018-07-12T18:32:57.838Z,5.67
2018-07-12T18:34:05.723Z,6.50
2018-07-12T18:35:11.940Z,6.30
2018-07-12T18:36:18.294Z,6.60
2018-07-12T18:37:24.633Z,5.73
2018-07-12T18:38:32.477Z,6.30
2018-07-12T18:39:38.831Z,5.33
2018-07-12T18:40:46.639Z,6.00
2018-07-12T18:41:54.008Z,5.33
2018-07-12T18:43:01.437Z,6.10
2018-07-12T18:44:08.641Z,6.33
2018-07-12T18:45:14.927Z,5.10
2018-07-12T18:46:21.754Z,6.17
2018-07-12T18:47:27.942Z,5.27
2018-07-12T18:48:35.236Z,6.93
2018-07-12T18:49:41.386Z,5.90
2018-07-12T18:50:47.761Z,5.87
2018-07-12T18:51:54.816Z,6.20
2018-07-12T18:53:02.012Z,6.07
2018-07-12T18:54:08.283Z,6.20
2018-07-12T18:55:15.458Z,6.33
2018-07-12T18:56:22.826Z,7.17
2018-07-12T18:57:29.082Z,7.40
2018-07-12T18:58:35.393Z,6.80
2018-07-12T18:59:42.904Z,7.00
2018-07-12T19:00:49.286Z,6.57
2018-07-12T19:01:55.577Z,6.40
2018-07-12T19:03:01.859Z,5.93
2018-07-12T19:04:11.475Z,6.67
2018-07-12T19:05:18.038Z,6.07
2018-07-12T19:06:25.458Z,6.80
2018-07-12T19:07:32.698Z,6.43
2018-07-12T19:08:39.771Z,6.20
2018-07-12T19:09:46.278Z,6.27
2018-07-12T19:10:52.596Z,6.10
2018-07-12T19:11:58.952Z,5.77
2018-07-12T19:13:05.509Z,6.70
2018-07-12T19:14:13.373Z,6.50
2018-07-12T19:15:21.602Z,6.70
2018-07-12T19:16:27.898Z,6.63
2018-07-12T19:17:34.883Z,5.80
2018-07-12T19:18:42.843Z,6.90
2018-07-12T19:20:00.627Z,5.97
2018-07-12T19:21:13.385Z,6.13
2018-07-12T19:22:19.830Z,6.13
2018-07-12T19:23:26.907Z,6.33
2018-07-12T19:24:33.866Z,6.37
2018-07-12T19:25:40.384Z,6.53
2018-07-12T19:26:48.216Z,6.63
2018-07-12T19:27:55.361Z,5.90
2018-07-12T19:29:02.152Z,6.27
2018-07-12T19:30:09.478Z,5.63
2018-07-12T19:31:16.960Z,6.03
2018-07-12T19:32:28.130Z,5.20
2018-07-12T19:33:34.757Z,5.80
2018-07-12T19:34:41.941Z,5.77
2018-07-12T19:35:48.373Z,6.57
2018-07-12T19:36:55.711Z,6.50
2018-07-12T19:38:02.603Z,5.87
2018-07-12T19:39:10.269Z,6.37
2018-07-12T19:40:17.336Z,5.43
2018-07-12T19:41:24.407Z,5.17
2018-07-12T19:42:32.688Z,5.37
2018-07-12T19:43:40.354Z,5.83
2018-07-12T19:44:47.177Z,6.97
2018-07-12T19:45:56.408Z,5.80
2018-07-12T19:47:03.548Z,6.23
2018-07-12T19:48:10.636Z,5.33
2018-07-12T19:49:16.974Z,6.00
2018-07-12T19:50:25.215Z,5.63
2018-07-12T19:51:32.480Z,5.50
2018-07-12T19:52:39.453Z,5.73
2018-07-12T19:53:46.090Z,5.70
2018-07-12T19:54:53.936Z,5.93
2018-07-12T19:56:00.051Z,6.27
2018-07-12T19:57:07.152Z,6.20
2018-07-12T19:58:14.324Z,6.60
2018-07-12T19:59:21.514Z,6.33
2018-07-12T20:00:27.682Z,5.40
2018-07-12T20:01:36.091Z,6.10
2018-07-12T20:02:43.880Z,6.40
2018-07-12T20:03:51.645Z,6.00
2018-07-12T20:04:59.880Z,5.70
2018-07-12T20:06:07.230Z,5.73
2018-07-12T20:07:15.340Z,6.23
2018-07-12T20:08:22.320Z,6.27
2018-07-12T20:09:30.430Z,6.20
2018-07-12T20:10:37.371Z,6.63
2018-07-12T20:11:45.150Z,6.23
2018-07-12T20:12:52.701Z,5.97
2018-07-12T20:14:00.110Z,6.20
2018-07-12T20:15:08.049Z,6.27
2018-07-12T20:16:15.881Z,5.77
2018-07-12T20:17:23.400Z,6.53
2018-07-12T20:18:30.030Z,6.60
2018-07-12T20:19:37.350Z,6.33
2018-07-12T20:20:45.080Z,6.47
2018-07-12T20:21:52.233Z,5.60
2018-07-12T20:22:59.301Z,6.10
2018-07-12T20:24:08.510Z,6.20
2018-07-12T20:25:14.962Z,6.40